Date,TemperatureHighF,TemperatureAvgF,TemperatureLowF,DewpointHighF,DewpointAvgF,DewpointLowF,HumidityHigh,HumidityAvg,HumidityLow,PressureMaxIn,PressureMinIn,WindSpeedMaxMPH,WindSpeedAvgMPH,GustSpeedMaxMPH,PrecipitationSumIn
2013-3-1,42,37,33,31,26,21,79,64,48,29.91,29.73,8,4,0,0.00
2013-3-2,34,31,29,23,19,17,67,61,51,29.91,29.85,8,5,0,0.00
2013-3-3,35,31,28,22,18,15,77,59,48,29.94,29.84,12,6,0,0.00
2013-3-4,38,31,26,18,15,12,61,51,40,30.06,29.94,12,6,0,0.00
2013-3-5,50,35,21,25,18,14,82,54,26,30.11,29.83,7,2,0,0.00
2013-3-6,41,36,32,33,30,25,94,82,59,30.04,29.71,13,6,0,0.00
2013-3-7,45,39,33,29,26,22,80,61,46,30.19,30.04,12,5,0,0.00
2013-3-8,47,40,34,27,25,22,76,57,43,30.32,30.17,15,7,0,0.00
2013-3-9,60,40,24,27,23,19,88,55,25,30.40,30.27,4,1,0,0.00
2013-3-10,64,45,26,30,24,20,90,51,23,30.33,30.19,8,3,0,0.00
2013-3-11,59,51,41,47,36,19,76,57,29,30.20,29.85,10,3,0,0.00
2013-3-12,58,50,40,52,41,26,95,71,53,29.98,29.74,12,7,0,0.00
2013-3-13,45,38,31,28,22,17,73,53,35,30.07,29.91,13,5,0,0.00
2013-3-14,41,34,30,20,15,12,63,45,32,30.14,30.06,14,8,0,0.00
2013-3-15,54,41,30,31,23,14,62,48,34,30.11,29.78,10,3,0,0.00
2013-3-16,47,40,34,39,33,29,91,78,51,29.95,29.67,6,2,0,0.00
2013-3-17,40,36,33,33,26,20,91,68,48,30.28,29.94,11,3,0,0.00
2013-3-18,36,34,32,31,24,17,92,69,51,30.32,29.91,4,1,0,0.00
2013-3-19,54,40,32,36,27,12,95,66,21,29.94,29.73,18,4,0,0.00
2013-3-20,48,39,31,25,16,13,64,40,24,29.99,29.78,13,6,0,0.00
2013-3-21,35,30,25,23,12,6,70,48,34,29.91,29.80,12,5,0,0.00
2013-3-22,40,32,25,18,15,9,60,50,39,30.03,29.88,10,5,0,0.00
2013-3-23,50,36,24,23,19,15,77,53,31,30.05,29.94,10,3,0,0.00
2013-3-24,44,35,24,29,21,17,83,59,39,30.03,29.67,5,1,0,0.00
2013-3-25,38,34,31,34,31,29,94,88,82,29.72,29.54,3,1,0,0.00
2013-3-26,49,38,28,34,28,23,95,73,37,30.01,29.72,9,2,0,0.00
2013-3-27,47,40,35,31,27,23,72,59,40,30.14,30.01,12,5,0,0.00
2013-3-28,46,41,37,29,27,24,70,59,44,30.24,30.09,14,4,0,0.00
2013-3-29,54,44,37,31,27,24,66,52,33,30.27,30.15,9,2,0,0.00
2013-3-30,60,43,26,32,25,22,94,56,25,30.25,30.11,6,1,0,0.00
2013-3-31,49,43,32,44,35,-100,95,77,51,30.11,29.75,3,0,0,0.00